Time;durP1;ratioP1;P1;durP2;ratioP2;P2;SDS_P1;SDS_P2;PMS_P1;PMS_P2;Temp;Humidity;BMP_temperature;BMP_pressure;BME280_temperature;BME280_humidity;BME280_pressure;Samples;Min_cycle;Max_cycle;Signal;HPM_P1;HPM_P2
2022/06/03 00:00:10;;;;;;;7.55;6.55;;;;;;;16.92;100.00;96503.38;5062533;28;20530;-57
2022/06/03 00:03:09;;;;;;;7.97;6.28;;;;;;;16.92;100.00;96506.03;5062108;28;20460;-56
2022/06/03 00:05:59;;;;;;;8.07;6.00;;;;;;;16.90;100.00;96497.41;5063638;28;20150;-55
2022/06/03 00:08:56;;;;;;;7.10;5.95;;;;;;;16.88;100.00;96502.09;5064364;28;20056;-51
2022/06/03 00:11:32;;;;;;;9.90;6.72;;;;;;;16.78;100.00;96496.19;5054553;28;20060;-56
2022/06/03 00:14:15;;;;;;;7.32;6.63;;;;;;;16.63;100.00;96504.16;5062088;28;20052;-53
2022/06/03 00:16:50;;;;;;;9.23;6.60;;;;;;;16.49;100.00;96503.13;5062325;28;20431;-47
2022/06/03 00:19:37;;;;;;;7.15;6.40;;;;;;;16.33;100.00;96503.25;5054972;28;20507;-49
2022/06/03 00:22:31;;;;;;;10.65;6.50;;;;;;;16.06;100.00;96502.78;5061004;28;20072;-54
2022/06/03 00:25:08;;;;;;;8.13;6.22;;;;;;;15.85;100.00;96494.63;5046578;28;20072;-54
2022/06/03 00:28:20;;;;;;;9.82;6.60;;;;;;;16.01;100.00;96499.03;5066730;28;20079;-53
2022/06/03 00:31:00;;;;;;;8.15;6.55;;;;;;;15.99;100.00;96493.03;5043429;28;20083;-52
2022/06/03 00:33:50;;;;;;;8.32;6.70;;;;;;;15.96;100.00;96493.38;5062893;28;20217;-52
2022/06/03 00:36:33;;;;;;;7.33;6.43;;;;;;;15.97;100.00;96492.41;5062880;28;20056;-52
2022/06/03 00:39:13;;;;;;;7.30;6.13;;;;;;;15.92;100.00;96487.59;5061694;28;20478;-49
2022/06/03 00:41:52;;;;;;;7.33;6.40;;;;;;;15.91;100.00;96488.63;5065834;28;20052;-52
2022/06/03 00:44:48;;;;;;;7.35;5.95;;;;;;;15.90;100.00;96486.97;5066684;28;21037;-58
2022/06/03 00:47:31;;;;;;;7.90;5.97;;;;;;;15.92;100.00;96486.78;5064545;28;20137;-56
2022/06/03 00:50:40;;;;;;;8.45;6.72;;;;;;;15.78;100.00;96481.22;5064261;28;20539;-51
2022/06/03 00:53:30;;;;;;;8.02;7.22;;;;;;;15.88;100.00;96475.66;5040518;28;20668;-51
2022/06/03 00:56:21;;;;;;;8.65;6.82;;;;;;;15.83;100.00;96467.41;5062796;28;20052;-50
2022/06/03 00:58:57;;;;;;;8.45;7.03;;;;;;;15.79;100.00;96471.41;5064583;28;20082;-51
2022/06/03 01:01:29;;;;;;;9.25;6.90;;;;;;;15.65;100.00;96462.31;5063166;28;20068;-52
2022/06/03 01:04:20;;;;;;;7.25;6.43;;;;;;;15.56;100.00;96463.41;5062162;28;20079;-53
2022/06/03 01:06:59;;;;;;;8.68;6.78;;;;;;;15.54;100.00;96465.38;5061695;28;20075;-50
2022/06/03 01:09:44;;;;;;;7.85;7.05;;;;;;;15.35;100.00;96453.38;5061486;28;20087;-59
2022/06/03 01:12:30;;;;;;;9.95;6.78;;;;;;;15.36;100.00;96455.84;5058186;28;20053;-55
2022/06/03 01:15:09;;;;;;;8.20;7.30;;;;;;;15.44;100.00;96460.28;5058129;28;20053;-58
2022/06/03 01:17:47;;;;;;;7.70;6.90;;;;;;;15.51;100.00;96457.75;5063010;28;20063;-52
2022/06/03 01:20:23;;;;;;;7.53;6.35;;;;;;;15.38;100.00;96458.31;5057937;28;20109;-53
2022/06/03 01:23:17;;;;;;;7.93;6.30;;;;;;;15.28;100.00;96461.22;5064798;28;20028;-54
2022/06/03 01:26:06;;;;;;;8.82;7.00;;;;;;;15.02;100.00;96465.97;5060682;28;20556;-53
2022/06/03 01:28:49;;;;;;;8.15;7.30;;;;;;;15.02;100.00;96450.88;5063817;28;20075;-54
2022/06/03 01:31:37;;;;;;;8.60;7.60;;;;;;;14.94;100.00;96450.91;5061715;28;20056;-54
2022/06/03 01:34:19;;;;;;;8.00;7.22;;;;;;;14.99;100.00;96453.88;5061140;28;20532;-54
2022/06/03 01:37:08;;;;;;;8.65;7.63;;;;;;;14.86;100.00;96466.84;5063714;28;20491;-50
2022/06/03 01:39:57;;;;;;;8.90;8.00;;;;;;;14.90;100.00;96474.34;5058058;28;20091;-48
2022/06/03 01:42:42;;;;;;;13.87;7.60;;;;;;;14.98;100.00;96462.84;5063795;28;20079;-51
2022/06/03 01:45:56;;;;;;;8.88;7.60;;;;;;;15.02;100.00;96463.31;5064349;28;20052;-56
2022/06/03 01:48:52;;;;;;;8.75;7.95;;;;;;;15.02;100.00;96461.50;5035370;28;20047;-51
2022/06/03 01:51:48;;;;;;;9.35;7.75;;;;;;;15.02;100.00;96450.03;5061175;28;20083;-52
2022/06/03 01:54:47;;;;;;;8.30;7.22;;;;;;;14.98;100.00;96456.72;5061420;28;20060;-53
2022/06/03 01:57:36;;;;;;;8.38;7.45;;;;;;;14.93;100.00;96455.41;5062046;28;20459;-53
2022/06/03 02:00:14;;;;;;;9.10;7.53;;;;;;;15.02;100.00;96450.88;5060323;28;20065;-49
2022/06/03 02:03:09;;;;;;;7.57;6.55;;;;;;;15.02;100.00;96452.72;5064348;28;20060;-55
2022/06/03 02:06:25;;;;;;;8.50;6.80;;;;;;;15.03;100.00;96451.69;5061283;28;20063;-51
2022/06/03 02:09:09;;;;;;;10.02;6.57;;;;;;;15.03;100.00;96439.25;5065314;28;20064;-54
2022/06/03 02:11:53;;;;;;;7.70;6.90;;;;;;;15.08;100.00;96436.09;5060012;28;20072;-53
2022/06/03 02:15:15;;;;;;;11.63;6.75;;;;;;;15.07;100.00;96439.72;5057803;28;20625;-48
2022/06/03 02:17:54;;;;;;;7.13;6.40;;;;;;;15.01;100.00;96438.59;5033599;28;20057;-55
2022/06/03 02:20:58;;;;;;;8.88;6.28;;;;;;;15.04;100.00;96448.06;5064485;28;20056;-51
2022/06/03 02:23:50;;;;;;;8.00;6.70;;;;;;;15.12;100.00;96453.31;5057207;28;20080;-51
2022/06/03 02:26:44;;;;;;;8.15;6.65;;;;;;;15.00;100.00;96454.69;5061243;28;20125;-51
2022/06/03 02:32:35;;;;;;;8.50;6.53;;;;;;;14.94;100.00;96453.56;5059051;28;20453;-54
2022/06/03 02:35:25;;;;;;;7.75;6.70;;;;;;;14.87;100.00;96444.63;5060677;28;20514;-57
2022/06/03 02:37:55;;;;;;;;;;;;;;;14.96;100.00;96444.41;5059216;28;20111;-52
2022/06/03 02:41:10;;;;;;;7.30;5.90;;;;;;;15.04;100.00;96448.06;5055115;28;19955;-53
2022/06/03 02:44:20;;;;;;;7.95;6.63;;;;;;;14.99;100.00;96450.38;5061433;28;20056;-50
2022/06/03 02:47:15;;;;;;;7.03;6.32;;;;;;;14.77;100.00;96459.94;5048700;28;20127;-48
2022/06/03 02:50:22;;;;;;;9.20;7.13;;;;;;;14.36;100.00;96465.31;5064077;28;20468;-50
2022/06/03 02:53:23;;;;;;;7.78;6.40;;;;;;;14.24;100.00;96460.31;5000547;28;20062;-53
2022/06/03 02:56:01;;;;;;;7.15;6.45;;;;;;;14.13;100.00;96454.53;5037052;28;20090;-55
2022/06/03 02:58:45;;;;;;;7.50;6.65;;;;;;;14.28;100.00;96454.69;5058294;28;20067;-47
2022/06/03 03:01:37;;;;;;;7.80;6.35;;;;;;;14.25;100.00;96447.91;5065634;28;20072;-52
2022/06/03 03:04:17;;;;;;;8.77;6.95;;;;;;;14.28;100.00;96450.22;5063990;28;20087;-50
2022/06/03 03:07:05;;;;;;;12.27;7.72;;;;;;;14.33;100.00;96442.59;5066722;28;20087;-50
2022/06/03 03:09:38;;;;;;;7.95;7.18;;;;;;;14.33;100.00;96445.22;5067200;28;20475;-53
2022/06/03 03:12:43;;;;;;;10.07;6.82;;;;;;;14.16;100.00;96443.59;5065011;28;20056;-54
2022/06/03 03:15:26;;;;;;;11.32;7.32;;;;;;;14.35;100.00;96445.91;5067932;28;20067;-51
2022/06/03 03:18:19;;;;;;;10.98;7.07;;;;;;;14.49;100.00;96455.00;5067364;28;20059;-50
2022/06/03 03:21:41;;;;;;;9.38;6.70;;;;;;;14.47;100.00;96454.31;5062305;28;20471;-48
2022/06/03 03:24:33;;;;;;;7.03;6.32;;;;;;;14.57;100.00;96454.19;5012589;28;20060;-54
2022/06/03 03:27:14;;;;;;;7.57;6.78;;;;;;;14.57;100.00;96459.50;5033326;28;20151;-54
2022/06/03 03:29:52;;;;;;;8.05;6.65;;;;;;;14.63;100.00;96464.13;5065579;28;20671;-51
2022/06/03 03:32:40;;;;;;;7.25;6.38;;;;;;;14.75;100.00;96465.41;5066793;28;20071;-52
2022/06/03 03:35:40;;;;;;;7.93;6.88;;;;;;;14.65;100.00;96467.41;5064813;28;20068;-52
2022/06/03 03:38:35;;;;;;;10.10;6.70;;;;;;;14.82;100.00;96468.22;5067761;28;20053;-50
2022/06/03 03:41:37;;;;;;;7.38;5.90;;;;;;;14.96;100.00;96468.31;5064531;28;20064;-54
2022/06/03 03:44:43;;;;;;;8.85;6.40;;;;;;;15.27;100.00;96470.19;5070670;28;20090;-52
2022/06/03 03:47:51;;;;;;;9.68;6.18;;;;;;;16.12;100.00;96462.16;5061958;28;20060;-53
2022/06/03 03:50:57;;;;;;;6.97;6.28;;;;;;;17.41;100.00;96457.50;5066198;28;20056;-53
2022/06/03 03:53:49;;;;;;;6.72;5.80;;;;;;;17.68;100.00;96457.75;5061526;28;20071;-49
2022/06/03 03:57:05;;;;;;;7.60;5.97;;;;;;;18.35;100.00;96453.91;5067626;28;20091;-49
2022/06/03 03:59:54;;;;;;;9.45;5.38;;;;;;;18.45;100.00;96457.88;5063449;28;20693;-51
2022/06/03 04:02:50;;;;;;;8.40;5.53;;;;;;;17.71;100.00;96458.22;5065122;28;20075;-50
2022/06/03 04:05:47;;;;;;;9.63;5.97;;;;;;;17.91;100.00;96455.78;5062972;28;20072;-51
2022/06/03 04:08:42;;;;;;;7.10;5.80;;;;;;;18.47;100.00;96450.50;5062803;28;20160;-56
2022/06/03 04:11:37;;;;;;;6.43;5.50;;;;;;;18.69;100.00;96453.13;5062752;28;20534;-53
2022/06/03 04:14:45;;;;;;;6.18;5.57;;;;;;;17.94;100.00;96455.41;5058354;28;20064;-54
2022/06/03 04:17:32;;;;;;;8.10;5.68;;;;;;;17.60;100.00;96448.03;5049909;28;20068;-56
2022/06/03 04:20:35;;;;;;;7.50;6.30;;;;;;;18.32;100.00;96457.78;5063474;28;20175;-55
2022/06/03 04:23:40;;;;;;;7.15;5.95;;;;;;;19.34;100.00;96459.88;5050296;28;20067;-53
2022/06/03 04:26:54;;;;;;;7.45;6.75;;;;;;;20.82;100.00;96463.41;5028004;28;20184;-56
2022/06/03 04:30:07;;;;;;;7.85;5.57;;;;;;;19.85;100.00;96455.94;5032396;28;20076;-54
2022/06/03 04:33:20;;;;;;;7.22;6.03;;;;;;;19.43;100.00;96452.50;5068340;28;20068;-52
2022/06/03 04:36:23;;;;;;;6.00;5.45;;;;;;;19.15;100.00;96456.06;5067926;28;20064;-50
2022/06/03 04:39:38;;;;;;;6.40;5.53;;;;;;;18.95;100.00;96468.50;5052776;28;20836;-54
2022/06/03 04:42:39;;;;;;;7.65;5.88;;;;;;;18.83;100.00;96468.25;5064450;28;20102;-50
2022/06/03 04:45:29;;;;;;;8.10;5.43;;;;;;;18.76;100.00;96471.91;5063401;28;20071;-52
2022/06/03 04:48:46;;;;;;;7.22;6.05;;;;;;;18.12;100.00;96462.94;5058482;28;20064;-50
2022/06/03 04:51:52;;;;;;;10.20;5.70;;;;;;;18.17;100.00;96457.88;5006624;28;20073;-50
2022/06/03 04:54:54;;;;;;;6.70;5.95;;;;;;;18.17;100.00;96465.03;5058119;28;20068;-52
2022/06/03 04:58:00;;;;;;;7.97;6.00;;;;;;;18.66;100.00;96470.38;5055556;28;21377;-52
2022/06/03 05:00:49;;;;;;;6.95;6.22;;;;;;;19.59;100.00;96467.38;5062677;28;21263;-53
2022/06/03 05:04:00;;;;;;;6.33;5.70;;;;;;;19.03;100.00;96462.19;5055483;28;20041;-49
2022/06/03 05:06:58;;;;;;;7.93;7.13;;;;;;;19.84;100.00;96462.31;5006539;28;21510;-54
2022/06/03 05:10:00;;;;;;;10.38;7.30;;;;;;;21.34;100.00;96447.41;5053442;28;21166;-51
2022/06/03 05:12:58;;;;;;;7.70;6.75;;;;;;;21.78;100.00;96453.78;5057174;28;20122;-46
2022/06/03 05:16:04;;;;;;;7.95;7.13;;;;;;;22.58;100.00;96461.31;5063109;28;20286;-49
2022/06/03 05:19:18;;;;;;;9.48;7.13;;;;;;;22.96;100.00;96451.25;5049879;28;20071;-51
2022/06/03 05:22:22;;;;;;;7.22;6.40;;;;;;;21.09;100.00;96456.13;5059601;28;20453;-48
2022/06/03 05:25:29;;;;;;;8.23;7.43;;;;;;;19.88;100.00;96455.53;5062308;28;20073;-50
2022/06/03 05:28:36;;;;;;;9.07;8.20;;;;;;;20.86;100.00;96455.78;5067132;28;20497;-54
2022/06/03 05:31:47;;;;;;;8.77;7.68;;;;;;;21.14;100.00;96442.06;5068502;28;20088;-52
2022/06/03 05:34:48;;;;;;;8.90;7.82;;;;;;;20.75;100.00;96443.00;5066209;28;20557;-50
2022/06/03 05:37:51;;;;;;;8.32;7.53;;;;;;;21.14;100.00;96431.34;5063130;28;20500;-52
2022/06/03 05:40:35;;;;;;;8.45;7.65;;;;;;;20.70;100.00;96438.25;5055488;28;20064;-49
2022/06/03 05:43:49;;;;;;;8.23;7.40;;;;;;;20.93;100.00;96437.81;5054496;28;20076;-51
2022/06/03 05:46:21;;;;;;;9.90;8.07;;;;;;;21.94;100.00;96444.41;5055245;28;20068;-48
2022/06/03 05:49:12;;;;;;;8.93;8.02;;;;;;;21.13;100.00;96443.13;5058808;28;20072;-50
2022/06/03 05:52:03;;;;;;;8.77;7.53;;;;;;;21.81;100.00;96438.06;5055298;28;20565;-57
2022/06/03 05:54:57;;;;;;;7.88;7.15;;;;;;;21.50;100.00;96438.84;5048693;28;20075;-50
2022/06/03 05:57:33;;;;;;;7.43;6.63;;;;;;;21.90;100.00;96435.94;5052544;28;21469;-53
2022/06/03 06:00:40;;;;;;;9.50;7.25;;;;;;;22.22;100.00;96444.84;5061208;28;20063;-49
2022/06/03 06:03:18;;;;;;;7.95;7.15;;;;;;;21.56;100.00;96437.19;5062855;28;20056;-48
2022/06/03 06:05:51;;;;;;;8.27;7.47;;;;;;;21.06;100.00;96442.31;5064146;28;20125;-50
2022/06/03 06:08:29;;;;;;;9.75;7.38;;;;;;;21.10;100.00;96432.81;5068353;28;20056;-54
2022/06/03 06:11:03;;;;;;;9.65;7.88;;;;;;;20.63;100.00;96446.31;5068560;28;20056;-52
2022/06/03 06:13:57;;;;;;;9.52;8.10;;;;;;;20.95;100.00;96451.81;5061071;28;20114;-52
2022/06/03 06:16:31;;;;;;;8.43;7.30;;;;;;;21.36;100.00;96444.50;5055035;28;20454;-52
2022/06/03 06:19:05;;;;;;;8.35;7.32;;;;;;;21.05;100.00;96433.44;5065676;28;20084;-54
2022/06/03 06:21:58;;;;;;;8.30;6.88;;;;;;;21.50;100.00;96433.47;5058693;28;20423;-47
2022/06/03 06:24:46;;;;;;;8.27;6.72;;;;;;;22.15;100.00;96429.81;5061585;28;20300;-49
2022/06/03 06:27:58;;;;;;;8.45;7.07;;;;;;;22.23;100.00;96422.34;5060991;28;20072;-55
2022/06/03 06:30:55;;;;;;;7.88;6.30;;;;;;;22.11;100.00;96431.28;5062298;28;20060;-53
2022/06/03 06:34:00;;;;;;;7.95;7.22;;;;;;;22.27;100.00;96430.78;5054222;28;22090;-49
2022/06/03 06:36:53;;;;;;;7.60;6.22;;;;;;;22.41;100.00;96443.06;5065297;28;22091;-49
2022/06/03 06:39:34;;;;;;;6.80;6.07;;;;;;;22.31;100.00;96442.72;5066220;28;20056;-57
2022/06/03 06:42:14;;;;;;;6.90;6.20;;;;;;;21.97;100.00;96436.72;5068642;28;20071;-47
2022/06/03 06:44:51;;;;;;;7.25;6.38;;;;;;;22.09;100.00;96438.72;5064967;28;20087;-46
2022/06/03 06:47:23;;;;;;;6.80;5.47;;;;;;;21.88;100.00;96447.94;5060823;28;20068;-48
2022/06/03 06:49:58;;;;;;;6.68;5.85;;;;;;;22.19;100.00;96450.66;5064989;28;20071;-58
2022/06/03 06:52:48;;;;;;;7.40;6.63;;;;;;;22.35;100.00;96449.28;5065104;28;20075;-55
2022/06/03 06:55:21;;;;;;;7.82;5.53;;;;;;;22.28;100.00;96454.72;5062806;28;20121;-51
2022/06/03 06:57:55;;;;;;;10.88;6.10;;;;;;;22.58;100.00;96450.56;5066599;28;20076;-54
2022/06/03 07:00:25;;;;;;;8.25;6.13;;;;;;;22.91;100.00;96445.66;5070970;28;21463;-49
2022/06/03 07:02:56;;;;;;;6.65;6.05;;;;;;;23.05;100.00;96448.25;5064206;28;20448;-50
2022/06/03 07:05:30;;;;;;;7.57;6.35;;;;;;;23.18;100.00;96442.72;5064989;28;20103;-57
2022/06/03 07:08:02;;;;;;;6.85;6.15;;;;;;;23.51;100.00;96442.34;5062291;28;20075;-51
2022/06/03 07:10:33;;;;;;;9.38;6.93;;;;;;;23.14;100.00;96436.16;5064096;28;20064;-53
2022/06/03 07:13:09;;;;;;;7.85;7.05;;;;;;;23.99;100.00;96427.22;5065932;28;20084;-51
2022/06/03 07:15:50;;;;;;;9.50;6.55;;;;;;;23.36;100.00;96428.44;5069325;28;20464;-49
2022/06/03 07:21:13;;;;;;;7.53;6.82;;;;;;;22.31;100.00;96412.34;5065655;28;20065;-55
2022/06/03 07:23:47;;;;;;;9.18;7.43;;;;;;;23.18;100.00;96410.44;5067334;28;20064;-54
2022/06/03 07:26:22;;;;;;;10.13;7.65;;;;;;;23.24;100.00;96412.25;5065937;28;20063;-54
2022/06/03 07:28:57;;;;;;;7.50;6.72;;;;;;;22.46;100.00;96407.44;5070379;28;20511;-52
2022/06/03 07:31:29;;;;;;;8.65;6.68;;;;;;;22.88;100.00;96400.44;5064035;28;20667;-52
2022/06/03 07:34:01;;;;;;;9.98;6.00;;;;;;;23.33;100.00;96408.19;5064871;28;20079;-55
2022/06/03 07:36:35;;;;;;;6.95;5.28;;;;;;;23.25;100.00;96405.81;5070787;28;20091;-54
2022/06/03 07:39:38;;;;;;;8.93;5.88;;;;;;;23.39;100.00;96404.59;5063260;28;20060;-54
2022/06/03 07:42:10;;;;;;;6.80;5.60;;;;;;;23.04;100.00;96390.94;5053108;28;20455;-53
2022/06/03 07:44:46;;;;;;;6.53;5.90;;;;;;;22.45;100.00;96390.50;5063817;28;20523;-50
2022/06/03 07:47:18;;;;;;;6.43;5.75;;;;;;;22.69;100.00;96396.06;5049880;28;20068;-54
2022/06/03 07:49:54;;;;;;;9.60;5.72;;;;;;;23.46;100.00;96393.72;5057436;28;20090;-47
2022/06/03 07:52:28;;;;;;;7.25;6.25;;;;;;;23.48;100.00;96397.03;5064956;28;20060;-53
2022/06/03 07:54:58;;;;;;;9.27;6.82;;;;;;;23.57;100.00;96387.59;5068604;28;20095;-49
2022/06/03 07:57:29;;;;;;;7.20;6.40;;;;;;;24.07;100.00;96399.94;5058270;28;20087;-49
2022/06/03 08:00:00;;;;;;;5.85;4.82;;;;;;;23.45;100.00;96401.00;5068323;28;20062;-55
2022/06/03 08:02:28;;;;;;;6.15;5.55;;;;;;;23.48;100.00;96398.91;5063819;28;20072;-54
2022/06/03 08:05:05;;;;;;;8.93;5.57;;;;;;;23.91;100.00;96402.22;5070647;28;20064;-52
2022/06/03 08:13:11;;;;;;;5.68;4.90;;;;;;;24.16;100.00;96393.16;5061184;28;20105;-57
2022/06/03 08:15:45;;;;;;;7.55;5.38;;;;;;;24.47;100.00;96394.75;5067131;28;20088;-47
2022/06/03 08:18:15;;;;;;;7.07;5.25;;;;;;;23.73;100.00;96393.41;5067442;28;20045;-50
2022/06/03 08:20:48;;;;;;;7.43;5.18;;;;;;;23.90;100.00;96397.91;5058713;28;20128;-48
2022/06/03 08:23:18;;;;;;;7.50;5.20;;;;;;;24.33;100.00;96396.00;5059772;28;20072;-52
2022/06/03 08:25:48;;;;;;;5.93;5.10;;;;;;;24.50;100.00;96396.13;5069287;28;20478;-53
2022/06/03 08:28:21;;;;;;;6.60;5.32;;;;;;;24.42;100.00;96391.91;5063666;28;20068;-51
2022/06/03 08:30:53;;;;;;;6.03;5.38;;;;;;;24.85;100.00;96390.75;5063871;28;20068;-51
2022/06/03 08:33:28;;;;;;;7.03;5.78;;;;;;;24.60;100.00;96390.97;5054606;28;20232;-53
2022/06/03 08:35:57;;;;;;;6.93;6.13;;;;;;;24.61;100.00;96388.06;5060310;28;20064;-48
2022/06/03 08:38:29;;;;;;;7.25;5.80;;;;;;;24.89;100.00;96385.69;5069171;28;20053;-55
2022/06/03 08:41:06;;;;;;;7.22;5.65;;;;;;;24.67;100.00;96382.78;5067822;28;20059;-51
2022/06/03 08:44:01;;;;;;;6.32;5.70;;;;;;;24.51;100.00;96371.66;5066511;28;20064;-51
2022/06/03 08:46:38;;;;;;;6.80;6.10;;;;;;;24.79;100.00;96368.22;5055373;28;20100;-49
2022/06/03 08:49:10;;;;;;;7.13;6.30;;;;;;;24.80;100.00;96369.03;5064605;28;20080;-50
2022/06/03 08:51:44;;;;;;;6.85;5.80;;;;;;;24.82;100.00;96365.06;5063922;28;20080;-52
2022/06/03 08:54:20;;;;;;;7.05;5.60;;;;;;;24.77;100.00;96370.31;5067225;28;20463;-54
2022/06/03 08:56:51;;;;;;;6.60;5.10;;;;;;;25.00;100.00;96363.25;5069149;28;20060;-50
2022/06/03 08:59:25;;;;;;;7.22;5.45;;;;;;;25.14;100.00;96364.66;5066927;28;20079;-52
2022/06/03 09:01:57;;;;;;;6.90;5.18;;;;;;;25.08;100.00;96360.19;5069449;28;20060;-51
2022/06/03 09:04:33;;;;;;;8.48;5.78;;;;;;;25.19;100.00;96353.97;5059601;28;20052;-46
2022/06/03 09:07:06;;;;;;;6.32;4.78;;;;;;;24.89;100.00;96353.31;5055256;28;20081;-46
2022/06/03 09:09:40;;;;;;;6.13;4.85;;;;;;;25.28;100.00;96354.41;5059257;28;20072;-51
2022/06/03 09:12:13;;;;;;;6.75;5.32;;;;;;;25.43;100.00;96345.78;5049122;28;20488;-49
2022/06/03 09:14:43;;;;;;;6.45;5.40;;;;;;;25.24;100.00;96348.66;5054468;28;20076;-52
2022/06/03 09:17:33;;;;;;;6.93;5.00;;;;;;;25.33;100.00;96346.41;5051878;28;20091;-54
2022/06/03 09:20:06;;;;;;;5.63;5.00;;;;;;;25.79;100.00;96342.69;5061528;28;20530;-50
2022/06/03 09:22:34;;;;;;;4.90;4.50;;;;;;;25.70;100.00;96336.00;5052037;28;20069;-50
2022/06/03 09:25:06;;;;;;;5.22;4.22;;;;;;;25.59;100.00;96339.59;5065331;28;20570;-51
2022/06/03 09:27:35;;;;;;;6.35;4.90;;;;;;;25.67;100.00;96341.06;5068169;28;20478;-55
2022/06/03 09:30:06;;;;;;;5.55;4.78;;;;;;;26.08;100.00;96347.22;5066777;28;20076;-48
2022/06/03 09:32:41;;;;;;;6.72;4.85;;;;;;;25.73;100.00;96340.94;5061050;28;20063;-54
2022/06/03 09:35:13;;;;;;;6.55;5.55;;;;;;;26.10;100.00;96340.50;5064789;28;20064;-57
2022/06/03 09:37:47;;;;;;;6.72;5.40;;;;;;;25.60;100.00;96338.53;5055852;28;20060;-51
2022/06/03 09:40:19;;;;;;;5.38;4.28;;;;;;;26.06;100.00;96335.84;5065988;28;20470;-49
2022/06/03 09:42:54;;;;;;;4.95;4.45;;;;;;;26.09;100.00;96325.34;5057844;28;20068;-51
2022/06/03 09:45:24;;;;;;;4.38;3.97;;;;;;;26.19;100.00;96327.41;5060887;28;20673;-47
2022/06/03 09:47:54;;;;;;;5.15;4.30;;;;;;;26.44;100.00;96319.66;5068999;28;20419;-51
2022/06/03 09:50:24;;;;;;;6.07;3.85;;;;;;;26.85;100.00;96319.44;5061652;28;20067;-51
2022/06/03 09:52:59;;;;;;;;;;;;;;;26.06;100.00;96320.44;5069348;28;20067;-47
2022/06/03 09:55:29;;;;;;;4.47;4.07;;;;;;;26.49;100.00;96308.94;5058286;28;19964;-50
2022/06/03 09:58:00;;;;;;;5.40;3.65;;;;;;;26.51;100.00;96314.91;5067294;28;20108;-55
2022/06/03 10:00:31;;;;;;;7.25;3.50;;;;;;;26.61;100.00;96310.72;5057398;28;20463;-47
2022/06/03 10:03:00;;;;;;;5.93;3.63;;;;;;;26.82;100.00;96303.69;5063773;28;20439;-50
2022/06/03 10:05:29;;;;;;;4.07;3.30;;;;;;;27.07;100.00;96306.69;5059485;28;20060;-47
2022/06/03 10:08:00;;;;;;;5.60;3.70;;;;;;;26.56;100.00;96305.22;5064657;28;20740;-50
2022/06/03 10:13:11;;;;;;;4.05;3.35;;;;;;;26.16;100.00;96307.09;5046544;28;20076;-50
2022/06/03 10:15:45;;;;;;;3.85;3.13;;;;;;;26.33;100.00;96296.25;5069610;28;20091;-53
2022/06/03 10:18:24;;;;;;;4.60;3.15;;;;;;;26.11;100.00;96300.78;5059395;28;20075;-52
2022/06/03 10:21:27;;;;;;;4.88;2.83;;;;;;;26.42;100.00;96300.16;5060565;28;20072;-48
2022/06/03 10:23:57;;;;;;;5.32;3.40;;;;;;;26.61;100.00;96298.00;5068296;28;20067;-52
2022/06/03 10:26:41;;;;;;;3.38;2.97;;;;;;;27.21;100.00;96289.00;5065751;28;20068;-51
2022/06/03 10:29:15;;;;;;;4.25;2.97;;;;;;;26.96;100.00;96289.53;5067201;28;20060;-57
2022/06/03 10:31:52;;;;;;;4.13;3.15;;;;;;;27.09;100.00;96272.09;5064776;28;20064;-50
2022/06/03 10:34:34;;;;;;;3.90;3.42;;;;;;;27.00;100.00;96270.88;5066592;28;20056;-52
2022/06/03 10:37:04;;;;;;;4.53;3.05;;;;;;;27.16;100.00;96275.44;5065017;28;20355;-52
2022/06/03 10:39:33;;;;;;;;;;;;;;;27.28;100.00;96271.75;5060250;28;20087;-48
2022/06/03 10:42:02;;;;;;;6.83;3.23;;;;;;;27.19;100.00;96266.81;5071541;28;19967;-54
2022/06/03 10:44:33;;;;;;;3.30;3.00;;;;;;;27.19;100.00;96269.53;5057864;28;20064;-52
2022/06/03 10:47:04;;;;;;;3.50;3.17;;;;;;;27.44;100.00;96262.72;5065273;28;20063;-56
2022/06/03 10:49:38;;;;;;;4.15;3.72;;;;;;;27.56;100.00;96259.84;5060872;28;20056;-50
2022/06/03 11:03:27;;;;;;;5.40;3.53;;;;;;;27.58;100.00;96236.84;5070043;28;20064;-50
2022/06/03 11:05:57;;;;;;;4.25;3.78;;;;;;;27.58;100.00;96247.66;5065343;28;20071;-50
2022/06/03 11:08:26;;;;;;;4.25;3.63;;;;;;;27.69;100.00;96245.84;5051946;28;20068;-48
2022/06/03 11:10:56;;;;;;;4.60;3.55;;;;;;;27.61;100.00;96246.34;5070893;28;20060;-56
2022/06/03 11:13:29;;;;;;;3.63;3.30;;;;;;;27.88;100.00;96257.97;5057562;28;20068;-49
2022/06/03 11:16:13;;;;;;;4.65;2.88;;;;;;;27.82;100.00;96261.72;5061994;28;20557;-58
2022/06/03 11:18:42;;;;;;;4.00;3.40;;;;;;;27.54;100.00;96251.16;5060253;28;20111;-53
2022/06/03 11:21:22;;;;;;;6.38;3.53;;;;;;;27.97;100.00;96249.34;5059050;28;20075;-53
2022/06/03 11:23:54;;;;;;;4.45;3.55;;;;;;;28.28;100.00;96237.63;5070283;28;20068;-53
2022/06/03 11:26:23;;;;;;;;;;;;;;;28.25;100.00;96240.03;5057782;28;20065;-53
2022/06/03 11:28:55;;;;;;;3.58;3.28;;;;;;;28.59;100.00;96233.19;5070566;28;19952;-51
2022/06/03 11:31:25;;;;;;;3.70;3.40;;;;;;;28.58;100.00;96226.16;5060509;28;20060;-53
2022/06/03 11:33:58;;;;;;;6.00;3.30;;;;;;;28.62;100.00;96224.53;5064717;28;20460;-50
2022/06/03 11:36:31;;;;;;;4.10;3.22;;;;;;;28.09;100.00;96222.88;5059846;28;20065;-52
2022/06/03 11:39:02;;;;;;;5.40;2.97;;;;;;;28.70;100.00;96222.38;5070661;28;20114;-49
2022/06/03 11:41:33;;;;;;;4.43;3.10;;;;;;;28.95;100.00;96221.69;5070020;28;20554;-49
2022/06/03 11:44:08;;;;;;;7.10;3.10;;;;;;;28.72;100.00;96222.94;5063916;28;20072;-53
2022/06/03 11:46:38;;;;;;;4.40;3.17;;;;;;;28.79;100.00;96226.22;5068916;28;20079;-52
2022/06/03 11:49:07;;;;;;;3.40;3.10;;;;;;;28.95;100.00;96216.25;5067083;28;20080;-49
2022/06/03 11:51:37;;;;;;;3.00;2.80;;;;;;;28.44;99.85;96213.34;5052630;28;20099;-52
2022/06/03 11:54:07;;;;;;;;;;;;;;;28.84;100.00;96215.41;5068880;28;20499;-54
2022/06/03 11:56:36;;;;;;;3.60;3.30;;;;;;;28.41;100.00;96217.38;5070276;28;19959;-52
2022/06/03 11:59:09;;;;;;;4.03;3.17;;;;;;;28.56;100.00;96219.34;5062878;28;20056;-51
2022/06/03 12:01:45;;;;;;;4.30;3.10;;;;;;;29.37;100.00;96218.78;5064750;28;20076;-50
2022/06/03 12:04:21;;;;;;;5.25;3.05;;;;;;;28.97;100.00;96217.59;5057361;28;20077;-53
2022/06/03 12:06:58;;;;;;;4.53;2.90;;;;;;;29.43;100.00;96223.16;5060298;28;20076;-50
2022/06/03 12:09:38;;;;;;;3.58;3.28;;;;;;;29.62;97.66;96228.06;5052428;28;20523;-52
2022/06/03 12:14:57;;;;;;;4.15;2.90;;;;;;;29.77;94.14;96222.66;5068672;28;20098;-55
2022/06/03 12:17:32;;;;;;;7.00;2.92;;;;;;;29.90;97.03;96219.34;5065962;28;20059;-50
2022/06/03 12:20:21;;;;;;;4.18;3.35;;;;;;;30.40;96.37;96219.56;5068253;28;20064;-53
2022/06/03 12:22:54;;;;;;;3.40;3.10;;;;;;;30.59;90.08;96212.41;5062738;28;20056;-51
2022/06/03 12:26:02;;;;;;;3.63;3.03;;;;;;;30.79;90.62;96216.16;5067029;28;20056;-55
2022/06/03 12:28:33;;;;;;;4.65;3.40;;;;;;;30.93;88.56;96209.00;5064834;28;20071;-49
2022/06/03 12:31:03;;;;;;;3.70;3.10;;;;;;;30.75;87.75;96202.28;5053471;28;20085;-50
2022/06/03 12:33:35;;;;;;;3.25;2.97;;;;;;;30.88;79.24;96206.34;5067593;28;20084;-53
2022/06/03 12:36:08;;;;;;;4.65;3.10;;;;;;;31.35;75.32;96203.09;5051230;28;20079;-56
2022/06/03 12:38:58;;;;;;;5.07;3.10;;;;;;;31.21;76.40;96204.75;5056863;28;20072;-54
2022/06/03 12:42:00;;;;;;;3.90;3.00;;;;;;;30.87;77.07;96194.63;5065381;28;20071;-50
2022/06/03 12:44:52;;;;;;;5.78;2.88;;;;;;;30.75;74.92;96196.84;5063657;28;20082;-50
2022/06/03 12:47:51;;;;;;;3.17;2.75;;;;;;;30.52;70.09;96192.84;5067248;28;20114;-57
2022/06/03 12:50:38;;;;;;;5.15;3.10;;;;;;;30.61;64.87;96193.91;5065901;28;20079;-52
2022/06/03 12:53:38;;;;;;;5.07;3.17;;;;;;;30.45;70.98;96184.16;5054315;28;20608;-58
2022/06/03 12:56:20;;;;;;;3.58;3.20;;;;;;;30.21;76.87;96183.97;5064656;28;20060;-51
2022/06/03 12:59:03;;;;;;;5.25;3.40;;;;;;;30.56;74.32;96185.78;5066473;28;20060;-52
2022/06/03 13:01:42;;;;;;;6.55;3.75;;;;;;;30.83;77.16;96179.13;5060169;28;20060;-51
2022/06/03 13:04:46;;;;;;;3.40;3.00;;;;;;;30.85;78.75;96179.66;5066595;28;20099;-53
2022/06/03 13:07:39;;;;;;;6.10;3.33;;;;;;;30.97;81.44;96172.78;5062969;28;20118;-51
2022/06/03 13:10:20;;;;;;;4.32;3.53;;;;;;;30.95;82.40;96174.97;5061385;28;20080;-53
2022/06/03 13:12:51;;;;;;;5.40;3.45;;;;;;;31.06;82.13;96173.00;5064621;28;20136;-48